Time;durP1;ratioP1;P1;durP2;ratioP2;P2;SDS_P1;SDS_P2;PMS_P1;PMS_P2;Temp;Humidity;BMP_temperature;BMP_pressure;BME280_temperature;BME280_humidity;BME280_pressure;Samples;Min_cycle;Max_cycle;Signal;HPM_P1;HPM_P2
2022/10/23 00:00:21;;;;;;;7.73;6.77;;;10.90;99.90;;;11.17;90.85;98174.06;5122697;27;20470;-78
2022/10/23 00:02:53;;;;;;;6.70;6.00;;;10.80;99.90;;;10.97;91.98;98161.44;5120889;27;20840;-77
2022/10/23 00:05:23;;;;;;;28.90;7.27;;;10.70;99.90;;;11.02;92.70;98167.06;5132677;27;20459;-78
2022/10/23 00:07:51;;;;;;;6.90;6.17;;;10.60;99.90;;;11.17;91.68;98165.97;5120037;27;20546;-78
2022/10/23 00:10:19;;;;;;;7.80;6.97;;;10.80;99.90;;;11.08;92.64;98169.94;5121371;27;20459;-77
2022/10/23 00:12:47;;;;;;;7.53;6.70;;;10.80;99.90;;;11.08;92.60;98176.19;5130052;27;20545;-78
2022/10/23 00:15:18;;;;;;;8.20;7.20;;;10.80;99.90;;;10.89;92.60;98162.53;5115489;27;20482;-77
2022/10/23 00:17:45;;;;;;;9.00;5.90;;;10.70;99.90;;;10.90;93.20;98174.19;5120246;28;20510;-76
2022/10/23 00:20:15;;;;;;;10.70;7.23;;;10.60;99.90;;;10.84;94.04;98170.47;5122260;28;20486;-77
2022/10/23 00:22:43;;;;;;;7.90;6.97;;;10.50;99.90;;;10.83;93.61;98159.84;5121864;28;20682;-77
2022/10/23 00:25:11;;;;;;;7.73;6.93;;;10.60;99.90;;;10.99;93.37;98150.44;5125050;27;20469;-76
2022/10/23 00:27:38;;;;;;;9.43;6.53;;;10.70;99.90;;;11.11;92.18;98150.59;5128638;27;20448;-76
2022/10/23 00:30:07;;;;;;;10.77;7.07;;;10.70;99.90;;;10.95;91.73;98133.81;5124692;27;20457;-78
2022/10/23 00:32:35;;;;;;;7.10;6.40;;;10.70;99.90;;;11.08;92.22;98159.97;5120319;27;20528;-78
2022/10/23 00:35:02;;;;;;;7.73;6.80;;;10.60;99.90;;;10.98;92.48;98162.31;5113775;27;20552;-78
2022/10/23 00:37:29;;;;;;;6.97;6.33;;;10.60;99.90;;;11.04;93.13;98154.16;5127378;27;20441;-78
2022/10/23 00:39:58;;;;;;;7.30;6.60;;;10.60;99.90;;;11.03;92.51;98147.09;5124973;27;20475;-79
2022/10/23 00:42:25;;;;;;;8.17;6.43;;;10.60;99.90;;;11.07;92.56;98146.66;5137103;27;20455;-81
2022/10/23 00:45:19;;;;;;;7.93;6.90;;;10.60;99.90;;;10.74;92.71;98111.47;5128043;27;20461;-79
2022/10/23 00:47:47;;;;;;;9.87;6.93;;;10.50;99.90;;;10.82;93.28;98123.06;5120056;27;20468;-79
2022/10/23 00:50:14;;;;;;;8.83;7.00;;;10.50;99.90;;;10.98;92.94;98138.78;5120637;27;20459;-81
2022/10/23 00:52:48;;;;;;;7.63;6.80;;;10.60;99.90;;;10.90;93.87;98137.16;5126909;27;20595;-78
2022/10/23 00:55:20;;;;;;;11.40;7.10;;;10.50;99.90;;;10.92;93.52;98131.53;5121072;27;20476;-77
2022/10/23 00:57:49;;;;;;;8.27;7.43;;;10.50;99.90;;;10.92;94.42;98134.25;5127404;27;21133;-79
2022/10/23 01:00:22;;;;;;;9.03;7.47;;;10.50;99.90;;;10.83;94.20;98141.78;5132850;27;20470;-80
2022/10/23 01:02:51;;;;;;;11.20;8.27;;;10.50;99.90;;;10.97;93.91;98131.72;5131517;27;20464;-80
2022/10/23 01:05:23;;;;;;;9.53;7.37;;;10.60;99.90;;;10.94;93.29;98121.34;5113393;27;20970;-80
2022/10/23 01:07:54;;;;;;;8.40;7.60;;;10.70;99.90;;;11.02;93.78;98126.50;5110339;28;20442;-78
2022/10/23 01:10:35;;;;;;;8.13;7.40;;;10.70;99.90;;;10.66;93.76;98067.63;5117881;27;21142;-79
2022/10/23 01:13:11;;;;;;;8.47;7.57;;;10.80;99.90;;;10.98;94.07;98111.75;5126935;27;20448;-78
2022/10/23 01:15:44;;;;;;;7.33;6.63;;;10.80;99.90;;;10.98;93.64;98117.16;5119038;27;20991;-78
2022/10/23 01:18:21;;;;;;;11.20;7.20;;;10.70;99.90;;;11.00;93.88;98115.09;5121976;27;20958;-77
2022/10/23 01:20:56;;;;;;;12.77;7.17;;;10.60;99.90;;;10.85;93.63;98117.25;5131572;27;20456;-76
2022/10/23 01:23:59;;;;;;;10.00;7.10;;;10.60;99.90;;;10.54;92.82;98053.94;5146806;27;20466;-76
2022/10/23 01:26:51;;;;;;;7.93;6.60;;;10.60;99.90;;;10.85;92.65;98112.66;5139767;27;20483;-75
2022/10/23 01:29:37;;;;;;;10.83;6.77;;;10.50;99.90;;;10.81;93.02;98105.19;5157280;27;20454;-81
2022/10/23 01:32:11;;;;;;;7.13;6.43;;;10.40;99.90;;;10.74;93.07;98095.25;5124055;27;22030;-79
2022/10/23 01:34:47;;;;;;;6.60;5.97;;;10.40;99.90;;;10.65;92.46;98084.91;5120515;27;20464;-79
2022/10/23 01:37:23;;;;;;;8.50;6.97;;;10.40;99.90;;;10.77;93.19;98113.72;5116586;27;20465;-77
2022/10/23 01:39:55;;;;;;;7.33;6.73;;;10.40;99.90;;;10.74;93.51;98106.06;5114267;27;21460;-80
2022/10/23 01:42:29;;;;;;;8.73;6.80;;;10.40;99.90;;;10.70;93.36;98099.44;5145166;27;20453;-80
2022/10/23 01:45:02;;;;;;;10.70;6.87;;;10.40;99.90;;;10.62;94.40;98102.34;5139283;27;20506;-80
2022/10/23 01:47:34;;;;;;;7.03;6.40;;;10.30;99.90;;;10.54;94.25;98079.09;5121557;27;20475;-79
2022/10/23 01:50:05;;;;;;;8.40;7.13;;;10.20;99.90;;;10.27;93.82;98032.44;5118150;27;20460;-78
2022/10/23 01:52:32;;;;;;;8.60;7.00;;;10.40;99.90;;;10.71;93.70;98106.47;5121840;27;20473;-78
2022/10/23 01:55:01;;;;;;;6.60;6.10;;;10.40;99.90;;;10.48;93.11;98071.88;5124261;27;21062;-79
2022/10/23 01:57:31;;;;;;;7.33;6.60;;;10.30;99.90;;;10.59;92.68;98092.78;5123139;27;21151;-76
2022/10/23 02:00:05;;;;;;;6.70;6.00;;;10.30;99.90;;;10.48;92.15;98053.78;5138558;27;20523;-78
2022/10/23 02:02:36;;;;;;;6.70;5.80;;;10.30;99.90;;;10.56;92.87;98076.19;5129702;27;20957;-77
2022/10/23 02:05:09;;;;;;;7.00;5.77;;;10.30;99.90;;;10.53;92.49;98074.75;5117939;27;20461;-79
2022/10/23 02:07:37;;;;;;;7.83;6.40;;;10.20;99.90;;;10.40;93.34;98081.00;5130088;27;20460;-78
2022/10/23 02:10:07;;;;;;;7.23;6.40;;;10.10;99.90;;;10.20;93.94;98062.97;5137348;27;20966;-77
2022/10/23 02:12:49;;;;;;;8.50;6.40;;;10.00;99.90;;;10.34;93.38;98066.47;5138181;27;21164;-80
2022/10/23 02:15:26;;;;;;;6.87;5.87;;;10.00;99.90;;;10.21;92.96;98043.03;5124848;27;20470;-78
2022/10/23 02:18:04;;;;;;;8.00;6.23;;;10.00;99.90;;;10.31;93.28;98068.75;5126475;27;20917;-77
2022/10/23 02:20:39;;;;;;;8.30;7.13;;;10.00;99.90;;;10.27;93.34;98067.53;5118948;27;20920;-79
2022/10/23 02:23:18;;;;;;;7.53;6.60;;;9.90;99.90;;;10.34;93.53;98065.63;5123007;27;20473;-78
2022/10/23 02:25:54;;;;;;;6.50;5.87;;;10.00;99.90;;;10.28;93.32;98066.50;5137081;27;20956;-79
2022/10/23 02:28:27;;;;;;;10.90;6.27;;;9.90;99.90;;;10.21;93.59;98053.81;5128821;27;20479;-78
2022/10/23 02:30:58;;;;;;;8.03;5.87;;;9.90;99.90;;;10.26;93.06;98063.19;5133108;27;20460;-78
2022/10/23 02:33:28;;;;;;;6.53;5.90;;;9.90;99.90;;;10.00;94.55;98051.41;5131825;27;20541;-77
2022/10/23 02:35:55;;;;;;;7.90;7.10;;;9.80;99.90;;;10.00;94.22;98041.41;5121315;27;20529;-78
2022/10/23 02:38:34;;;;;;;11.87;6.83;;;9.80;99.90;;;10.02;94.32;98066.34;5121511;27;20469;-81
2022/10/23 02:41:21;;;;;;;7.10;6.20;;;9.70;99.90;;;9.98;95.02;98053.47;5128170;27;20510;-81
2022/10/23 02:44:02;;;;;;;9.00;6.60;;;9.70;99.90;;;9.98;94.55;98058.88;5139380;27;20482;-78
2022/10/23 02:46:44;;;;;;;7.20;6.50;;;9.70;99.90;;;9.99;94.76;98060.53;5132078;27;21113;-77
2022/10/23 02:49:17;;;;;;;7.93;6.60;;;9.70;99.90;;;10.11;93.98;98064.25;5118295;27;20985;-78
2022/10/23 02:51:59;;;;;;;10.10;6.33;;;9.70;99.90;;;9.97;94.63;98062.63;5139901;27;20465;-78
2022/10/23 02:54:44;;;;;;;6.90;5.80;;;9.70;99.90;;;9.97;94.62;98066.13;5122174;27;20572;-78
2022/10/23 02:57:21;;;;;;;8.50;7.07;;;9.70;99.90;;;9.60;95.21;98009.94;5137638;27;20464;-78
2022/10/23 02:59:59;;;;;;;7.57;6.70;;;9.70;99.90;;;9.90;94.30;98058.06;5121739;27;21043;-77
2022/10/23 03:02:35;;;;;;;6.73;6.17;;;9.60;99.90;;;9.66;94.42;98024.47;5123033;27;20450;-77
2022/10/23 03:05:06;;;;;;;7.33;6.00;;;9.60;99.90;;;9.87;95.08;98065.75;5123981;27;20491;-76
2022/10/23 03:07:34;;;;;;;9.90;6.70;;;9.60;99.90;;;10.04;94.68;98074.22;5137496;27;20471;-76
2022/10/23 03:10:01;;;;;;;8.30;7.00;;;9.60;99.90;;;10.03;94.77;98067.16;5120250;27;20579;-77
2022/10/23 03:12:29;;;;;;;7.20;6.57;;;9.80;99.90;;;9.99;94.97;98071.34;5127089;27;20470;-78
2022/10/23 03:14:56;;;;;;;7.60;6.83;;;9.80;99.90;;;9.99;94.37;98066.75;5121131;27;20517;-78
2022/10/23 03:17:24;;;;;;;6.77;6.20;;;9.80;99.90;;;9.73;94.79;98019.06;5137565;27;20476;-77
2022/10/23 03:19:52;;;;;;;7.43;6.43;;;9.80;99.90;;;9.95;93.86;98048.50;5120714;27;20455;-77
2022/10/23 03:22:19;;;;;;;6.73;6.00;;;9.80;99.90;;;9.74;94.02;98043.16;5134869;27;20506;-77
2022/10/23 03:24:47;;;;;;;7.00;6.30;;;9.80;99.90;;;9.91;94.65;98067.00;5117993;27;20750;-76
2022/10/23 03:27:15;;;;;;;7.00;6.17;;;9.70;99.90;;;9.88;94.59;98060.13;5123289;27;20503;-78
2022/10/23 03:29:42;;;;;;;7.30;6.67;;;9.70;99.90;;;9.86;93.47;98062.22;5113625;27;20484;-75
2022/10/23 03:32:09;;;;;;;7.53;6.70;;;9.70;99.90;;;9.82;93.34;98058.28;5116103;27;20453;-74
2022/10/23 03:34:37;;;;;;;7.20;6.50;;;9.60;99.90;;;9.67;94.77;98039.59;5122862;27;20492;-79
2022/10/23 03:37:05;;;;;;;9.00;6.33;;;9.60;99.90;;;9.76;94.34;98049.16;5125866;27;20545;-78
2022/10/23 03:39:32;;;;;;;6.70;6.10;;;9.60;99.90;;;9.72;93.27;98049.78;5110050;27;20474;-81
2022/10/23 03:41:59;;;;;;;9.77;6.57;;;9.50;99.90;;;9.62;94.65;98044.81;5128712;27;21038;-80
2022/10/23 03:44:27;;;;;;;7.90;7.20;;;9.40;99.90;;;9.54;94.26;98039.63;5121733;27;20447;-80
2022/10/23 03:46:55;;;;;;;7.40;6.70;;;9.40;99.90;;;9.60;94.29;98036.91;5121402;27;20454;-79
2022/10/23 03:49:22;;;;;;;9.43;6.60;;;9.40;99.90;;;9.59;94.85;98051.44;5106970;28;20454;-79
2022/10/23 03:51:51;;;;;;;10.60;6.17;;;9.50;99.90;;;9.66;94.45;98050.63;5120861;27;20905;-82
2022/10/23 03:54:22;;;;;;;6.93;6.33;;;9.40;99.90;;;9.67;94.33;98050.41;5116329;27;20473;-80
2022/10/23 03:56:49;;;;;;;7.60;6.80;;;9.40;99.90;;;9.60;95.01;98050.41;5122447;27;20499;-80
2022/10/23 03:59:17;;;;;;;7.73;6.93;;;9.30;99.90;;;9.69;95.92;98050.19;5118494;27;20489;-80
2022/10/23 04:01:44;;;;;;;11.13;7.03;;;9.30;99.90;;;9.64;95.79;98040.88;5120003;27;20453;-80
2022/10/23 04:04:12;;;;;;;10.70;6.77;;;9.50;99.90;;;9.67;95.47;98041.50;5122742;27;20607;-81
2022/10/23 04:06:40;;;;;;;7.10;6.50;;;9.60;99.90;;;9.69;94.21;98039.41;5123680;27;20999;-76
2022/10/23 04:09:07;;;;;;;7.40;6.70;;;9.60;99.90;;;9.71;95.12;98037.34;5119917;27;20505;-80
2022/10/23 04:11:36;;;;;;;8.40;6.97;;;9.60;99.90;;;9.72;93.83;98042.53;5120387;27;20959;-80
2022/10/23 04:14:03;;;;;;;7.20;6.50;;;9.50;99.90;;;9.67;95.61;98052.28;5123137;28;20485;-78
2022/10/23 04:16:31;;;;;;;7.50;6.70;;;9.40;99.90;;;9.66;94.06;98047.94;5117547;27;20535;-78
2022/10/23 04:18:58;;;;;;;6.97;6.07;;;9.50;99.90;;;9.67;94.49;98053.09;5120517;27;20454;-78
2022/10/23 04:21:25;;;;;;;6.83;6.13;;;9.40;99.90;;;9.61;94.11;98038.56;5119203;27;20467;-81
2022/10/23 04:23:52;;;;;;;6.73;6.13;;;9.40;99.90;;;9.52;94.38;98042.53;5120006;28;20483;-81
2022/10/23 04:26:20;;;;;;;6.63;6.03;;;9.40;99.90;;;9.68;93.74;98048.53;5118937;28;20540;-77
2022/10/23 04:28:49;;;;;;;8.30;6.30;;;9.50;99.90;;;9.52;94.76;98039.84;5120801;28;20456;-80
2022/10/23 04:31:16;;;;;;;8.67;7.80;;;9.50;99.90;;;9.60;94.76;98044.19;5126438;28;20866;-79
2022/10/23 04:33:43;;;;;;;7.87;7.07;;;9.50;99.90;;;9.42;94.94;98028.63;5112492;28;20488;-76
2022/10/23 04:36:11;;;;;;;7.70;6.70;;;9.50;99.90;;;9.46;95.01;98043.34;5117957;28;20481;-80
2022/10/23 04:38:38;;;;;;;7.40;5.97;;;9.40;99.90;;;9.52;95.43;98041.69;5123628;27;20463;-79
2022/10/23 04:41:06;;;;;;;7.20;6.50;;;9.40;99.90;;;9.61;95.55;98037.75;5147626;27;20508;-77
2022/10/23 04:43:33;;;;;;;6.70;6.07;;;9.50;99.90;;;9.60;96.85;98042.31;5139869;27;20469;-77
2022/10/23 04:46:02;;;;;;;8.10;6.97;;;9.60;99.90;;;9.66;96.68;98035.25;5143884;27;20471;-78
2022/10/23 04:48:29;;;;;;;7.77;6.77;;;9.60;99.90;;;9.78;95.20;98035.44;5129405;27;20457;-77
2022/10/23 04:50:57;;;;;;;7.90;7.10;;;9.60;99.90;;;9.69;95.15;98045.63;5126619;28;20508;-79
2022/10/23 04:53:25;;;;;;;8.13;6.90;;;9.60;99.90;;;9.66;95.39;98037.13;5137477;28;20442;-76
2022/10/23 04:55:55;;;;;;;8.90;6.40;;;9.60;99.90;;;9.53;94.99;98033.41;5142821;27;20527;-78
2022/10/23 04:58:23;;;;;;;9.30;7.47;;;9.50;99.90;;;9.55;95.29;98039.41;5142317;27;20512;-78
2022/10/23 05:00:51;;;;;;;11.40;6.70;;;9.40;99.90;;;9.62;95.21;98040.22;5131992;27;20485;-80
2022/10/23 05:03:21;;;;;;;7.67;6.83;;;9.40;99.90;;;9.50;94.95;98033.81;5132989;28;20920;-80
2022/10/23 05:05:48;;;;;;;6.90;6.30;;;9.40;99.90;;;9.54;95.63;98043.16;5131891;28;20562;-79
2022/10/23 05:08:15;;;;;;;12.60;7.17;;;9.40;99.90;;;9.58;95.09;98046.28;5151599;27;20465;-77
2022/10/23 05:10:43;;;;;;;7.90;6.07;;;9.50;99.90;;;9.32;95.34;98016.38;5140712;27;20464;-78
2022/10/23 05:13:10;;;;;;;7.87;7.10;;;9.40;99.90;;;9.38;95.04;98022.00;5120755;27;21004;-78
2022/10/23 05:15:37;;;;;;;9.63;6.83;;;9.40;99.90;;;9.46;94.20;98035.25;5123193;27;20461;-79
2022/10/23 05:18:11;;;;;;;6.70;6.07;;;9.30;99.90;;;9.47;94.83;98028.81;5123831;27;20518;-79
2022/10/23 05:20:40;;;;;;;6.20;5.53;;;9.30;99.90;;;9.38;93.87;98035.47;5120376;27;20446;-77
2022/10/23 05:23:11;;;;;;;7.00;6.40;;;9.20;99.90;;;9.34;94.64;98049.38;5128364;27;20462;-79
2022/10/23 05:25:38;;;;;;;6.80;6.20;;;9.20;99.90;;;9.37;94.67;98044.63;5119162;27;20510;-77
2022/10/23 05:28:06;;;;;;;7.37;6.60;;;9.20;99.90;;;9.30;94.49;98042.72;5121271;27;20892;-76
2022/10/23 05:30:34;;;;;;;12.80;6.80;;;9.20;99.90;;;9.30;95.78;98047.31;5125964;27;20454;-80
2022/10/23 05:33:02;;;;;;;9.97;6.70;;;9.20;99.90;;;9.19;94.59;98040.66;5138652;27;20446;-79
2022/10/23 05:35:30;;;;;;;9.37;6.73;;;9.20;99.90;;;8.98;94.68;97993.97;5125513;27;20451;-80
2022/10/23 05:38:02;;;;;;;7.13;6.43;;;9.20;99.90;;;9.14;94.88;98026.94;5130432;27;20503;-80
2022/10/23 05:40:29;;;;;;;7.13;6.50;;;9.10;99.90;;;9.21;93.97;98049.38;5110880;28;20459;-78
2022/10/23 05:42:57;;;;;;;7.20;6.50;;;9.10;99.90;;;9.14;94.60;98043.13;5118969;27;20455;-78
2022/10/23 05:45:24;;;;;;;6.70;6.10;;;9.00;99.90;;;9.19;95.13;98046.06;5117245;27;20451;-78
2022/10/23 05:47:52;;;;;;;7.80;7.00;;;9.10;99.90;;;8.73;94.61;97962.25;5123717;27;20449;-79
2022/10/23 05:50:19;;;;;;;8.10;7.27;;;9.10;99.90;;;8.78;94.90;97975.09;5126945;27;20468;-80
2022/10/23 05:52:47;;;;;;;7.70;6.73;;;9.10;99.90;;;9.18;95.39;98023.66;5122513;27;20462;-79
2022/10/23 05:55:16;;;;;;;7.90;7.10;;;9.10;99.90;;;9.20;96.04;98031.53;5131539;27;20877;-76
2022/10/23 05:57:44;;;;;;;8.17;7.40;;;9.10;99.90;;;9.16;95.52;98024.88;5155456;27;20493;-76
2022/10/23 06:00:13;;;;;;;7.83;7.03;;;9.10;99.90;;;9.31;95.35;98028.19;5153433;27;20430;-74
2022/10/23 06:02:40;;;;;;;9.90;8.30;;;9.10;99.90;;;9.36;95.45;98032.97;5142520;27;20525;-77
2022/10/23 06:05:08;;;;;;;9.40;8.03;;;9.20;99.90;;;9.29;94.25;98011.41;5133333;27;20478;-75
2022/10/23 06:07:36;;;;;;;7.87;7.17;;;9.20;99.90;;;9.32;95.28;98035.25;5133169;27;20459;-75
2022/10/23 06:10:04;;;;;;;8.50;7.30;;;9.20;99.90;;;9.31;95.06;98028.19;5142761;27;20986;-75
2022/10/23 06:12:33;;;;;;;8.97;7.30;;;9.30;99.90;;;9.40;95.40;98034.25;5148144;27;20458;-74
2022/10/23 06:15:00;;;;;;;8.13;7.13;;;9.30;99.90;;;9.62;95.01;98036.72;5142066;27;20442;-78
2022/10/23 06:17:28;;;;;;;8.90;6.80;;;9.40;99.90;;;9.14;94.05;97963.09;5146740;27;20453;-76
2022/10/23 06:19:59;;;;;;;8.00;7.27;;;9.50;99.90;;;9.72;93.94;98029.03;5143257;27;20436;-73
2022/10/23 06:22:27;;;;;;;10.27;8.13;;;9.50;99.90;;;9.61;94.42;98030.47;5143698;27;20475;-73
2022/10/23 06:24:54;;;;;;;9.53;8.20;;;9.50;99.90;;;9.62;94.38;98034.84;5149260;27;20468;-74
2022/10/23 06:27:22;;;;;;;7.67;6.87;;;9.50;99.90;;;9.73;94.10;98036.09;5145483;27;20468;-76
2022/10/23 06:29:51;;;;;;;7.70;6.90;;;9.60;99.90;;;9.74;94.28;98031.50;5123103;27;20465;-78
2022/10/23 06:32:18;;;;;;;7.40;6.70;;;9.60;99.90;;;9.88;93.79;98027.75;5120994;27;20453;-74
2022/10/23 06:34:45;;;;;;;8.47;7.77;;;9.70;99.90;;;9.97;93.07;98025.66;5125084;27;20549;-77
2022/10/23 06:37:12;;;;;;;7.37;6.57;;;9.80;99.90;;;10.02;93.43;98041.22;5120764;27;20529;-77
2022/10/23 06:39:40;;;;;;;8.30;7.57;;;9.90;99.90;;;10.01;92.39;98039.56;5122218;27;21130;-72
2022/10/23 06:42:07;;;;;;;8.90;7.10;;;9.90;99.90;;;10.17;93.19;98036.41;5140930;27;20458;-72
2022/10/23 06:44:34;;;;;;;7.30;6.50;;;10.00;99.90;;;10.26;92.78;98036.19;5124976;27;20451;-75
2022/10/23 06:47:03;;;;;;;8.73;7.40;;;10.10;99.90;;;10.44;92.11;98035.50;5122165;27;20947;-80
2022/10/23 06:49:30;;;;;;;8.07;7.37;;;10.20;99.90;;;10.49;91.43;98033.81;5119377;27;20468;-73
2022/10/23 06:51:58;;;;;;;7.90;6.70;;;10.30;99.90;;;10.45;92.39;98038.00;5121199;27;20545;-78
2022/10/23 06:54:25;;;;;;;7.30;6.60;;;10.30;99.90;;;10.56;91.81;98031.09;5123689;27;20559;-78
2022/10/23 06:56:52;;;;;;;7.60;6.83;;;10.40;99.90;;;10.58;91.56;98047.09;5139672;27;20469;-78
2022/10/23 06:59:19;;;;;;;7.47;6.77;;;10.40;99.90;;;10.51;91.51;98024.66;5117688;27;20527;-75
2022/10/23 07:01:47;;;;;;;7.70;6.97;;;10.50;99.90;;;10.74;90.73;98037.66;5119194;27;20453;-76
2022/10/23 07:04:15;;;;;;;7.80;7.03;;;10.60;99.90;;;10.78;90.66;98036.19;5116495;27;20971;-76
2022/10/23 07:06:43;;;;;;;8.97;6.37;;;10.60;99.90;;;10.72;90.37;98032.47;5112704;27;20463;-76
2022/10/23 07:09:10;;;;;;;7.47;6.77;;;10.60;99.90;;;10.76;90.92;98032.84;5119028;27;20457;-76
2022/10/23 07:11:38;;;;;;;7.80;6.40;;;10.70;99.90;;;10.82;90.44;98028.47;5124186;27;20468;-75
2022/10/23 07:14:05;;;;;;;8.40;6.27;;;10.70;99.90;;;10.92;90.41;98026.13;5136197;27;20461;-76
2022/10/23 07:16:32;;;;;;;6.97;6.27;;;10.80;99.90;;;10.84;90.43;98029.06;5124828;27;20956;-76
2022/10/23 07:19:01;;;;;;;7.00;5.97;;;10.80;99.90;;;10.80;90.93;98025.16;5123391;27;21001;-75
2022/10/23 07:21:33;;;;;;;9.33;7.00;;;10.70;99.90;;;10.71;92.03;98025.41;5122110;27;21010;-78
2022/10/23 07:24:01;;;;;;;7.00;6.40;;;10.70;99.90;;;10.87;90.72;98017.84;5128670;27;20441;-78
2022/10/23 07:26:29;;;;;;;8.13;7.40;;;10.80;99.90;;;11.08;89.84;98023.94;5117575;27;20453;-75
2022/10/23 07:28:56;;;;;;;7.40;6.50;;;10.90;99.90;;;11.11;89.72;98018.94;5115758;27;20746;-76
2022/10/23 07:31:25;;;;;;;7.60;6.70;;;11.00;99.90;;;11.31;89.55;98017.94;5116753;27;20564;-74
2022/10/23 07:33:53;;;;;;;5.97;5.47;;;11.10;99.90;;;11.27;88.33;98017.56;5124126;27;20592;-74
2022/10/23 07:36:20;;;;;;;6.60;5.93;;;11.20;99.90;;;11.26;88.43;97952.88;5120709;27;21171;-75
2022/10/23 07:38:50;;;;;;;5.87;5.27;;;11.30;99.90;;;11.72;87.33;98010.31;5120491;27;20477;-77
2022/10/23 07:41:18;;;;;;;5.40;5.00;;;11.50;99.90;;;11.78;87.10;98009.44;5113282;27;20454;-75
2022/10/23 07:43:45;;;;;;;5.97;5.40;;;11.60;99.90;;;11.86;86.30;98011.81;5110103;27;20544;-74
2022/10/23 07:46:12;;;;;;;7.90;7.10;;;11.70;99.90;;;11.96;86.12;98013.19;5119157;27;20449;-73
2022/10/23 07:48:40;;;;;;;5.70;5.20;;;11.80;99.90;;;12.02;86.19;98015.03;5125308;27;20454;-76
2022/10/23 07:51:12;;;;;;;5.93;5.43;;;11.90;99.90;;;12.28;85.36;98021.22;5120920;27;20507;-75
2022/10/23 07:53:39;;;;;;;6.97;5.33;;;12.00;99.90;;;12.43;84.29;98021.66;5116037;27;20935;-74
2022/10/23 07:56:15;;;;;;;5.93;5.23;;;12.20;98.50;;;12.47;84.30;98013.91;5115352;27;21002;-73
2022/10/23 07:58:42;;;;;;;7.30;6.03;;;12.30;97.60;;;12.37;84.50;98011.72;5118927;27;21313;-75
2022/10/23 08:01:18;;;;;;;5.40;4.90;;;12.30;96.30;;;12.45;83.87;98003.28;5120326;27;20460;-74
2022/10/23 08:03:45;;;;;;;5.53;5.13;;;12.40;95.70;;;12.55;84.49;98004.63;5137568;27;20966;-77
2022/10/23 08:06:12;;;;;;;5.00;4.50;;;12.40;96.40;;;12.81;83.05;98008.00;5126140;27;20510;-75
2022/10/23 08:08:40;;;;;;;4.77;4.30;;;12.60;96.00;;;12.81;82.90;98000.72;5124964;27;20539;-74
2022/10/23 08:11:07;;;;;;;4.93;4.33;;;12.70;95.20;;;12.93;82.64;97994.50;5125210;27;20454;-75
2022/10/23 08:13:36;;;;;;;4.70;4.30;;;12.80;95.00;;;13.31;82.28;98007.69;5097803;28;20459;-74
2022/10/23 08:16:04;;;;;;;4.13;3.80;;;13.00;95.30;;;13.23;81.56;97999.88;5117364;27;20549;-73
2022/10/23 08:18:33;;;;;;;6.90;4.77;;;13.10;94.00;;;13.22;82.03;98000.94;5118542;28;20480;-78
2022/10/23 08:21:03;;;;;;;4.00;3.70;;;13.10;94.00;;;13.44;80.98;97993.09;5116641;27;20558;-75
2022/10/23 08:23:30;;;;;;;4.03;3.63;;;13.20;93.70;;;13.68;79.96;97989.56;5124952;27;20457;-75
2022/10/23 08:26:00;;;;;;;4.27;3.97;;;13.40;93.50;;;13.87;79.76;97993.00;5129665;27;20542;-75
2022/10/23 08:28:28;;;;;;;3.93;3.50;;;13.50;93.60;;;13.92;78.73;97978.69;5116603;28;20463;-75
2022/10/23 08:30:56;;;;;;;4.10;3.80;;;13.70;93.00;;;14.09;78.13;97985.03;5134264;27;20550;-76
2022/10/23 08:33:24;;;;;;;4.03;3.50;;;13.80;92.30;;;14.04;78.55;97982.22;5120745;27;20488;-78
2022/10/23 08:35:51;;;;;;;4.30;3.90;;;13.90;91.90;;;14.09;78.03;97979.63;5110464;27;21031;-72
2022/10/23 08:38:19;;;;;;;4.20;3.80;;;13.90;91.90;;;14.35;78.52;97965.72;5112771;27;21007;-77
2022/10/23 08:40:48;;;;;;;5.00;4.33;;;14.00;92.60;;;14.65;77.23;97970.09;5120061;27;20509;-74
2022/10/23 08:43:22;;;;;;;4.50;4.10;;;14.20;92.00;;;14.89;75.45;97970.03;5112926;27;20499;-73
2022/10/23 08:45:57;;;;;;;4.20;3.90;;;14.50;91.20;;;14.91;75.86;97973.31;5113788;27;20533;-76
2022/10/23 08:48:30;;;;;;;4.47;4.03;;;14.60;90.90;;;14.94;75.75;97965.50;5120721;27;20458;-78
2022/10/23 08:51:05;;;;;;;4.70;3.90;;;14.70;90.60;;;15.27;75.71;97966.59;5116621;27;20480;-78
2022/10/23 08:53:41;;;;;;;5.10;4.60;;;14.80;91.10;;;15.72;73.48;97961.28;5119449;27;20940;-82
2022/10/23 08:56:22;;;;;;;6.23;4.30;;;15.20;90.50;;;15.69;72.06;97913.56;5121170;27;20468;-73
2022/10/23 08:58:55;;;;;;;4.50;4.10;;;15.50;90.00;;;15.84;72.93;97964.69;5137315;27;20639;-77
2022/10/23 09:01:38;;;;;;;5.30;3.70;;;15.50;89.60;;;15.82;73.03;97953.22;5126662;27;20457;-75
2022/10/23 09:04:06;;;;;;;4.17;3.57;;;15.70;89.50;;;15.66;73.96;97943.19;5124556;27;20449;-75
2022/10/23 09:06:39;;;;;;;4.37;3.97;;;15.60;89.50;;;15.78;74.49;97943.94;5118296;27;20470;-76
2022/10/23 09:09:27;;;;;;;5.57;3.40;;;15.60;90.00;;;16.04;73.15;97947.03;5116906;27;21077;-75
2022/10/23 09:12:05;;;;;;;4.10;3.30;;;15.70;89.80;;;16.34;71.52;97942.19;5115320;27;20521;-76
2022/10/23 09:14:53;;;;;;;3.30;3.00;;;15.90;89.30;;;16.33;71.18;97941.38;5112153;27;20516;-74
2022/10/23 09:17:26;;;;;;;4.90;2.43;;;16.10;88.60;;;16.46;70.92;97939.34;5118262;27;20478;-74
2022/10/23 09:20:01;;;;;;;2.80;2.30;;;16.20;88.10;;;16.84;69.67;97948.44;5127793;27;20452;-74
2022/10/23 09:22:29;;;;;;;2.00;1.90;;;16.50;87.80;;;16.84;68.51;97959.38;5142319;27;21000;-75
2022/10/23 09:24:57;;;;;;;2.40;2.03;;;16.60;86.70;;;17.21;67.61;97960.53;5120438;27;20450;-74
2022/10/23 09:27:24;;;;;;;1.73;1.50;;;16.80;86.60;;;17.22;65.32;97960.28;5121626;27;20456;-77
2022/10/23 09:29:54;;;;;;;2.40;1.40;;;16.90;84.90;;;16.83;64.80;97946.81;5131370;27;20542;-76
2022/10/23 09:32:34;;;;;;;1.30;1.20;;;16.80;83.50;;;16.86;64.46;97935.38;5116252;28;20455;-74
2022/10/23 09:35:02;;;;;;;6.43;1.23;;;16.70;83.30;;;16.37;64.34;97947.97;5120344;28;20454;-76
2022/10/23 09:37:31;;;;;;;3.23;1.10;;;16.50;82.10;;;16.46;64.15;97947.53;5130480;27;20557;-75
2022/10/23 09:40:14;;;;;;;2.40;1.10;;;16.40;82.00;;;16.74;62.74;97942.88;5138010;27;20470;-72
2022/10/23 09:42:55;;;;;;;2.03;1.13;;;16.50;81.70;;;16.47;63.68;97932.81;5119947;27;20491;-73
2022/10/23 09:45:27;;;;;;;1.20;1.10;;;16.40;81.50;;;16.43;62.98;97929.78;5133075;27;20454;-76
2022/10/23 09:48:12;;;;;;;1.60;1.23;;;16.40;81.00;;;16.71;62.91;97923.22;5150421;27;20439;-75
2022/10/23 09:50:53;;;;;;;1.50;1.40;;;16.40;81.50;;;16.87;61.80;97926.09;5110158;28;20960;-76
2022/10/23 09:53:30;;;;;;;2.17;1.50;;;16.60;80.80;;;16.78;62.20;97927.66;5122254;27;20485;-76
2022/10/23 09:56:02;;;;;;;2.63;1.50;;;16.70;80.60;;;17.04;61.36;97930.63;5115288;27;20594;-75
2022/10/23 09:58:35;;;;;;;1.40;1.03;;;16.80;80.10;;;16.85;61.29;97925.53;5121808;27;20501;-77
2022/10/23 10:01:04;;;;;;;1.40;1.30;;;16.90;79.80;;;17.19;60.73;97922.56;5113008;27;20455;-75
2022/10/23 10:03:32;;;;;;;1.27;1.13;;;16.90;79.70;;;17.24;59.60;97930.81;5118358;27;20500;-73
2022/10/23 10:06:02;;;;;;;2.20;1.17;;;17.10;78.70;;;17.22;59.06;97938.47;5118838;27;20468;-76
2022/10/23 10:08:37;;;;;;;2.00;1.00;;;17.20;78.30;;;17.51;58.61;97932.63;5122768;27;20514;-75
2022/10/23 10:11:12;;;;;;;1.27;0.80;;;17.30;78.30;;;17.34;58.62;97940.16;5124026;27;20454;-76
2022/10/23 10:13:59;;;;;;;0.97;0.90;;;17.30;77.80;;;17.31;58.50;97933.34;5121205;27;20461;-76
2022/10/23 10:16:41;;;;;;;5.40;1.00;;;17.30;77.40;;;17.41;58.49;97924.38;5109705;27;20840;-76
2022/10/23 10:19:24;;;;;;;1.20;1.10;;;17.30;77.30;;;17.50;58.23;97917.34;5121009;27;20879;-75
2022/10/23 10:21:58;;;;;;;1.43;1.30;;;17.30;77.10;;;17.28;58.06;97877.34;5116576;27;20458;-78
2022/10/23 10:24:33;;;;;;;4.03;1.30;;;17.40;77.00;;;17.42;57.98;97915.09;5122912;27;20445;-76
2022/10/23 10:27:12;;;;;;;1.43;1.30;;;17.40;76.50;;;17.65;57.71;97913.06;5122610;27;20494;-76
2022/10/23 10:29:57;;;;;;;2.10;1.00;;;17.40;76.60;;;17.69;57.42;97895.88;5121711;27;20458;-75
2022/10/23 10:32:36;;;;;;;1.77;1.30;;;17.50;76.60;;;17.83;57.17;97901.69;5115711;27;20456;-76
2022/10/23 10:35:25;;;;;;;1.27;1.17;;;17.50;76.40;;;17.98;56.72;97889.19;5110961;27;20513;-76
2022/10/23 10:38:25;;;;;;;1.40;1.30;;;17.60;76.30;;;17.81;56.93;97884.72;5120898;27;20496;-76